Time;durP1;ratioP1;P1;durP2;ratioP2;P2;SDS_P1;SDS_P2;PMS_P1;PMS_P2;Temp;Humidity;BMP_temperature;BMP_pressure;BME280_temperature;BME280_humidity;BME280_pressure;Samples;Min_cycle;Max_cycle;Signal;HPM_P1;HPM_P2
2023/08/27 00:00:15;;;;;;;1.40;0.75;;;24.90;50.40;;;;;;5068179;28;20024;-64
2023/08/27 00:02:42;;;;;;;1.00;0.70;;;24.90;50.40;;;;;;5067795;28;20063;-64
2023/08/27 00:05:09;;;;;;;1.05;0.70;;;24.90;50.40;;;;;;5063358;28;20020;-65
2023/08/27 00:07:35;;;;;;;0.88;0.60;;;24.90;50.40;;;;;;5063592;28;21105;-67
2023/08/27 00:10:02;;;;;;;1.10;0.95;;;24.90;50.40;;;;;;5065306;28;20097;-64
2023/08/27 00:12:28;;;;;;;0.63;0.60;;;24.80;50.30;;;;;;5067329;28;20036;-66
2023/08/27 00:14:54;;;;;;;2.60;0.80;;;24.80;51.00;;;;;;5066154;28;20083;-67
2023/08/27 00:17:20;;;;;;;1.35;0.80;;;24.80;50.30;;;;;;5068736;28;20511;-66
2023/08/27 00:19:45;;;;;;;0.70;0.60;;;24.80;50.30;;;;;;5062633;28;20116;-63
2023/08/27 00:22:11;;;;;;;1.20;0.75;;;24.80;50.30;;;;;;5069788;28;20516;-67
2023/08/27 00:24:38;;;;;;;1.75;0.90;;;24.80;50.30;;;;;;5072203;28;20024;-65
2023/08/27 00:27:05;;;;;;;1.55;0.80;;;24.80;50.30;;;;;;5066156;28;20017;-63
2023/08/27 00:29:32;;;;;;;1.33;0.70;;;24.80;50.30;;;;;;5068923;28;20040;-66
2023/08/27 00:31:58;;;;;;;2.40;1.15;;;24.80;50.30;;;;;;5049109;28;20036;-67
2023/08/27 00:34:34;;;;;;;3.75;1.73;;;24.80;50.30;;;;;;5058251;28;20112;-63
2023/08/27 00:37:01;;;;;;;2.50;1.60;;;24.80;50.30;;;;;;5065333;28;20036;-65
2023/08/27 00:39:29;;;;;;;2.67;1.50;;;24.80;50.30;;;;;;5066929;28;20029;-65
2023/08/27 00:41:56;;;;;;;2.63;1.73;;;24.80;50.30;;;;;;5070761;28;20397;-63
2023/08/27 00:44:22;;;;;;;3.15;1.50;;;24.70;50.20;;;;;;5054213;28;20025;-65
2023/08/27 00:46:49;;;;;;;2.20;1.30;;;24.70;50.20;;;;;;5051194;28;20028;-67
2023/08/27 00:49:15;;;;;;;2.55;1.23;;;24.80;50.30;;;;;;5071568;28;20052;-62
2023/08/27 00:51:44;;;;;;;1.33;0.77;;;24.80;50.90;;;;;;5049105;28;20024;-65
2023/08/27 00:54:11;;;;;;;2.28;0.90;;;24.80;50.20;;;;;;5051750;28;20423;-65
2023/08/27 00:56:38;;;;;;;1.70;1.10;;;24.70;50.20;;;;;;5059063;28;20021;-67
2023/08/27 00:59:04;;;;;;;2.63;0.80;;;24.70;50.10;;;;;;5073015;28;20356;-66
2023/08/27 01:01:31;;;;;;;2.17;1.05;;;24.70;50.10;;;;;;5038759;28;20123;-66
2023/08/27 01:03:57;;;;;;;1.33;1.10;;;24.70;50.10;;;;;;5048830;28;20161;-64
2023/08/27 01:06:23;;;;;;;1.63;0.90;;;24.70;50.10;;;;;;5046607;28;20408;-65
2023/08/27 01:08:58;;;;;;;1.75;0.90;;;24.70;50.20;;;;;;5066949;28;20108;-66
2023/08/27 01:11:38;;;;;;;1.23;0.75;;;24.70;50.10;;;;;;5046121;28;20157;-63
2023/08/27 01:14:10;;;;;;;1.70;1.00;;;24.70;50.10;;;;;;5053794;28;20024;-64
2023/08/27 01:16:36;;;;;;;0.98;0.65;;;24.70;50.10;;;;;;5046004;28;20135;-64
2023/08/27 01:19:10;;;;;;;1.35;0.90;;;24.70;50.10;;;;;;5046361;28;20098;-67
2023/08/27 01:21:36;;;;;;;0.90;0.73;;;24.70;50.10;;;;;;5048671;28;20036;-68
2023/08/27 01:24:02;;;;;;;1.08;0.75;;;24.70;50.10;;;;;;5063835;28;20017;-63
2023/08/27 01:26:36;;;;;;;1.00;0.70;;;24.70;50.00;;;;;;5069318;28;20024;-63
2023/08/27 01:29:24;;;;;;;1.05;0.65;;;24.70;50.00;;;;;;5037196;28;20047;-67
2023/08/27 01:32:05;;;;;;;1.15;0.73;;;24.70;50.00;;;;;;5047742;28;20458;-65
2023/08/27 01:34:32;;;;;;;1.67;0.60;;;24.60;49.90;;;;;;5073351;28;20033;-62
2023/08/27 01:36:58;;;;;;;1.30;0.70;;;24.60;49.90;;;;;;5062601;28;20096;-64
2023/08/27 01:39:25;;;;;;;0.60;0.45;;;24.60;49.90;;;;;;5049496;28;20024;-64
2023/08/27 01:41:51;;;;;;;1.13;0.60;;;24.60;49.90;;;;;;5044256;28;20084;-66
2023/08/27 01:44:18;;;;;;;1.00;0.77;;;24.60;49.90;;;;;;5047957;28;20103;-63
2023/08/27 01:46:45;;;;;;;1.27;0.60;;;24.60;49.80;;;;;;5063452;28;20123;-64
2023/08/27 01:49:11;;;;;;;1.15;0.50;;;24.60;49.90;;;;;;5070383;28;20130;-64
2023/08/27 01:51:37;;;;;;;1.02;0.60;;;24.60;49.90;;;;;;5048917;28;20033;-64
2023/08/27 01:54:04;;;;;;;1.63;0.82;;;24.70;49.80;;;;;;5052142;28;20102;-66
2023/08/27 01:56:30;;;;;;;1.10;0.60;;;24.60;49.90;;;;;;5072105;28;20059;-64
2023/08/27 01:58:56;;;;;;;1.38;0.60;;;24.60;49.90;;;;;;5053665;28;20160;-64
2023/08/27 02:01:22;;;;;;;0.98;0.60;;;24.60;49.90;;;;;;5055793;28;20512;-63
2023/08/27 02:03:48;;;;;;;0.82;0.55;;;24.60;49.90;;;;;;5055194;28;20076;-65
2023/08/27 02:06:14;;;;;;;0.57;0.50;;;24.60;49.90;;;;;;5069327;28;20016;-63
2023/08/27 02:08:40;;;;;;;0.95;0.57;;;24.60;49.90;;;;;;5056494;28;20057;-64
2023/08/27 02:11:06;;;;;;;0.90;0.60;;;24.60;49.90;;;;;;5063844;28;20020;-63
2023/08/27 02:13:32;;;;;;;1.45;0.60;;;24.60;50.50;;;;;;5054104;28;20029;-64
2023/08/27 02:15:58;;;;;;;1.00;0.50;;;24.60;50.50;;;;;;5059762;28;20445;-68
2023/08/27 02:18:24;;;;;;;0.68;0.55;;;24.60;49.90;;;;;;5071357;28;20048;-64
2023/08/27 02:20:50;;;;;;;0.85;0.60;;;24.60;49.90;;;;;;5049934;28;20353;-62
2023/08/27 02:23:16;;;;;;;0.80;0.60;;;24.60;50.00;;;;;;5067409;28;20029;-64
2023/08/27 02:25:42;;;;;;;0.50;0.40;;;24.60;50.00;;;;;;5066910;28;20032;-65
2023/08/27 02:28:08;;;;;;;1.05;0.70;;;24.50;50.00;;;;;;5070498;28;20048;-62
2023/08/27 02:30:34;;;;;;;0.57;0.50;;;24.60;50.00;;;;;;5046598;28;20391;-65
2023/08/27 02:33:00;;;;;;;0.85;0.60;;;24.60;50.00;;;;;;5065660;28;20175;-64
2023/08/27 02:35:26;;;;;;;0.90;0.60;;;24.60;50.10;;;;;;5051233;28;20105;-64
2023/08/27 02:37:51;;;;;;;1.05;0.60;;;24.60;50.10;;;;;;5068662;28;20343;-63
2023/08/27 02:40:17;;;;;;;1.27;0.55;;;24.60;50.10;;;;;;5071019;28;20028;-65
2023/08/27 02:42:44;;;;;;;0.70;0.60;;;24.50;50.00;;;;;;5069863;28;20332;-64
2023/08/27 02:45:10;;;;;;;0.80;0.50;;;24.50;50.10;;;;;;5045781;28;20017;-63
2023/08/27 02:47:36;;;;;;;1.23;0.60;;;24.50;50.00;;;;;;5067605;28;20329;-65
2023/08/27 02:50:03;;;;;;;1.00;0.50;;;24.50;50.10;;;;;;5066517;28;20512;-63
2023/08/27 02:52:30;;;;;;;0.90;0.68;;;24.50;50.00;;;;;;5068627;28;20032;-64
2023/08/27 02:54:56;;;;;;;0.60;0.40;;;24.50;50.10;;;;;;5051508;28;20039;-65
2023/08/27 02:57:22;;;;;;;0.77;0.57;;;24.50;50.10;;;;;;5047929;28;20743;-65
2023/08/27 02:59:48;;;;;;;1.10;0.40;;;24.50;50.10;;;;;;5051463;28;20034;-65
2023/08/27 03:02:14;;;;;;;1.13;0.77;;;24.50;50.10;;;;;;5049185;28;20081;-65
2023/08/27 03:04:40;;;;;;;0.73;0.50;;;24.50;50.10;;;;;;5064546;28;20020;-64
2023/08/27 03:07:06;;;;;;;0.85;0.63;;;24.50;50.10;;;;;;5050055;28;20072;-62
2023/08/27 03:09:32;;;;;;;0.82;0.50;;;24.50;50.10;;;;;;5051483;28;20097;-65
2023/08/27 03:11:58;;;;;;;0.88;0.60;;;24.50;50.10;;;;;;5054291;28;20416;-67
2023/08/27 03:14:24;;;;;;;1.00;0.55;;;24.50;50.10;;;;;;5045914;28;20040;-66
2023/08/27 03:16:49;;;;;;;0.50;0.45;;;24.50;50.10;;;;;;5065781;28;20028;-63
2023/08/27 03:19:15;;;;;;;1.02;0.52;;;24.50;50.20;;;;;;5056572;28;20598;-65
2023/08/27 03:21:41;;;;;;;0.80;0.50;;;24.50;50.20;;;;;;5048615;28;20412;-64
2023/08/27 03:24:07;;;;;;;0.85;0.50;;;24.50;50.20;;;;;;5043944;28;20036;-63
2023/08/27 03:26:33;;;;;;;0.75;0.50;;;24.50;50.20;;;;;;5063192;28;20326;-62
2023/08/27 03:28:59;;;;;;;1.17;0.55;;;24.50;50.20;;;;;;5072749;28;20036;-67
2023/08/27 03:31:25;;;;;;;0.45;0.40;;;24.40;50.20;;;;;;5077094;28;20888;-66
2023/08/27 03:33:51;;;;;;;0.68;0.40;;;24.40;50.20;;;;;;5064104;28;20119;-67
2023/08/27 03:36:17;;;;;;;0.60;0.50;;;24.40;50.20;;;;;;5073974;28;20032;-63
2023/08/27 03:38:43;;;;;;;1.50;0.50;;;24.50;50.20;;;;;;5048285;28;20024;-65
2023/08/27 03:41:09;;;;;;;0.68;0.40;;;24.40;50.20;;;;;;5071785;28;20032;-65
2023/08/27 03:43:34;;;;;;;1.00;0.50;;;24.40;50.10;;;;;;5072683;28;20097;-63
2023/08/27 03:46:00;;;;;;;1.00;0.50;;;24.40;50.10;;;;;;5049115;28;20032;-63
2023/08/27 03:48:26;;;;;;;0.85;0.52;;;24.40;50.10;;;;;;5049534;28;20059;-66
2023/08/27 03:50:52;;;;;;;0.68;0.50;;;24.40;50.10;;;;;;5076104;28;20020;-66
2023/08/27 03:53:18;;;;;;;0.60;0.50;;;24.40;50.10;;;;;;5046999;28;20406;-65
2023/08/27 03:55:44;;;;;;;1.05;0.50;;;24.40;50.10;;;;;;5033199;28;20369;-63
2023/08/27 03:58:11;;;;;;;0.63;0.40;;;24.40;50.10;;;;;;5072666;28;20028;-64
2023/08/27 04:00:39;;;;;;;1.02;0.50;;;24.40;50.20;;;;;;5049821;28;20157;-65
2023/08/27 04:03:06;;;;;;;0.75;0.70;;;24.40;50.20;;;;;;5047289;28;20028;-64
2023/08/27 04:05:32;;;;;;;0.73;0.40;;;24.40;50.20;;;;;;5050121;28;20486;-63
2023/08/27 04:07:58;;;;;;;0.55;0.50;;;24.40;50.20;;;;;;5048948;28;20037;-64
2023/08/27 04:10:24;;;;;;;0.45;0.30;;;24.40;50.30;;;;;;5071443;28;20035;-65
2023/08/27 04:12:50;;;;;;;1.25;0.60;;;24.40;50.30;;;;;;5049102;28;20029;-66
2023/08/27 04:15:16;;;;;;;0.50;0.40;;;24.40;50.30;;;;;;5052804;28;20048;-64
2023/08/27 04:17:42;;;;;;;0.50;0.50;;;24.40;50.30;;;;;;5049885;28;20047;-65
2023/08/27 04:20:09;;;;;;;1.05;0.75;;;24.40;50.50;;;;;;5075511;28;20028;-63
2023/08/27 04:22:34;;;;;;;1.00;0.50;;;24.40;50.40;;;;;;5065130;28;20052;-65
2023/08/27 04:25:00;;;;;;;0.95;0.50;;;24.40;50.40;;;;;;5049882;28;20448;-66
2023/08/27 04:27:26;;;;;;;1.33;0.70;;;24.40;50.50;;;;;;5052244;28;20452;-63
2023/08/27 04:29:52;;;;;;;0.95;0.60;;;24.40;50.60;;;;;;5063276;28;20082;-68
2023/08/27 04:32:18;;;;;;;1.05;0.35;;;24.40;50.60;;;;;;5052500;28;20020;-66
2023/08/27 04:34:44;;;;;;;0.95;0.50;;;24.40;50.60;;;;;;5049867;28;20024;-63
2023/08/27 04:37:10;;;;;;;0.52;0.40;;;24.40;50.70;;;;;;5075698;28;20047;-64
2023/08/27 04:39:36;;;;;;;1.45;0.75;;;24.30;50.70;;;;;;5072907;28;20417;-62
2023/08/27 04:42:02;;;;;;;1.10;0.60;;;24.40;50.70;;;;;;5049532;28;20021;-64
2023/08/27 04:44:28;;;;;;;2.53;0.57;;;24.40;50.80;;;;;;5050447;28;20063;-64
2023/08/27 04:46:54;;;;;;;1.10;0.60;;;24.30;50.70;;;;;;5049311;28;20467;-64
2023/08/27 04:49:20;;;;;;;0.90;0.52;;;24.40;50.80;;;;;;5032766;28;20089;-64
2023/08/27 04:51:47;;;;;;;1.02;0.50;;;24.30;50.80;;;;;;5024774;28;20121;-61
2023/08/27 04:54:13;;;;;;;0.90;0.63;;;24.30;50.80;;;;;;5024810;28;20368;-65
2023/08/27 04:56:39;;;;;;;0.70;0.50;;;24.30;50.80;;;;;;5028816;28;20034;-62
2023/08/27 04:59:06;;;;;;;0.82;0.50;;;24.30;50.80;;;;;;5025678;28;20054;-61
2023/08/27 05:01:32;;;;;;;0.50;0.45;;;24.30;50.80;;;;;;5025583;28;20036;-63
2023/08/27 05:03:57;;;;;;;0.60;0.40;;;24.30;50.80;;;;;;5026872;28;20031;-64
2023/08/27 05:06:24;;;;;;;0.50;0.50;;;24.30;50.80;;;;;;5026525;28;20033;-62
2023/08/27 05:08:50;;;;;;;0.60;0.50;;;24.30;50.80;;;;;;5030161;28;20871;-64
2023/08/27 05:11:16;;;;;;;1.63;0.60;;;24.30;50.80;;;;;;5026681;28;20020;-63
2023/08/27 05:13:42;;;;;;;0.70;0.55;;;24.30;50.90;;;;;;5029813;28;20056;-62
2023/08/27 05:16:08;;;;;;;1.05;0.60;;;24.30;50.90;;;;;;5028615;28;20026;-64
2023/08/27 05:18:34;;;;;;;0.52;0.43;;;24.30;50.90;;;;;;5041810;28;20026;-63
2023/08/27 05:21:00;;;;;;;1.13;0.47;;;24.30;50.90;;;;;;5029966;28;20099;-64
2023/08/27 05:23:26;;;;;;;1.10;0.68;;;24.30;50.90;;;;;;5033584;28;20025;-63
2023/08/27 05:25:52;;;;;;;0.70;0.45;;;24.30;50.90;;;;;;5034443;28;20051;-61
2023/08/27 05:28:18;;;;;;;0.77;0.60;;;24.30;50.90;;;;;;5026164;28;20180;-66
2023/08/27 05:30:45;;;;;;;0.77;0.50;;;24.30;50.90;;;;;;5035182;28;20045;-67
2023/08/27 05:33:11;;;;;;;0.88;0.50;;;24.30;50.90;;;;;;5033929;28;20424;-63
2023/08/27 05:35:37;;;;;;;0.50;0.30;;;24.30;50.90;;;;;;5030084;28;20034;-64
2023/08/27 05:38:03;;;;;;;0.93;0.50;;;24.30;50.90;;;;;;5031729;28;20357;-63
2023/08/27 05:40:29;;;;;;;1.17;0.60;;;24.30;50.90;;;;;;5031720;28;20029;-64
2023/08/27 05:42:55;;;;;;;0.80;0.50;;;24.30;50.90;;;;;;5035868;28;20041;-65
2023/08/27 05:45:21;;;;;;;1.65;0.50;;;24.30;50.90;;;;;;5030733;28;20464;-67
2023/08/27 05:47:47;;;;;;;1.00;0.50;;;24.30;50.90;;;;;;5035547;28;20347;-62
2023/08/27 05:50:13;;;;;;;0.93;0.52;;;24.30;50.90;;;;;;5052416;28;20468;-65
2023/08/27 05:52:41;;;;;;;0.30;0.30;;;24.30;51.00;;;;;;5050952;28;20032;-62
2023/08/27 05:55:07;;;;;;;0.32;0.32;;;24.30;51.00;;;;;;5051984;28;20020;-63
2023/08/27 05:57:34;;;;;;;1.40;0.68;;;24.30;51.10;;;;;;5050019;28;20021;-66
2023/08/27 06:00:00;;;;;;;0.40;0.30;;;24.30;51.10;;;;;;5051352;28;20029;-61
2023/08/27 06:02:26;;;;;;;1.00;0.50;;;24.30;51.10;;;;;;5050106;28;20029;-63
2023/08/27 06:04:52;;;;;;;0.93;0.60;;;24.30;51.10;;;;;;5056714;28;20059;-64
2023/08/27 06:07:18;;;;;;;0.35;0.30;;;24.30;51.10;;;;;;5041532;28;20029;-63
2023/08/27 06:09:44;;;;;;;0.30;0.30;;;24.30;51.70;;;;;;5073555;28;20111;-65
2023/08/27 06:12:10;;;;;;;0.65;0.30;;;24.30;51.10;;;;;;5037788;28;20027;-63
2023/08/27 06:14:36;;;;;;;0.40;0.40;;;24.20;51.10;;;;;;5052682;28;20040;-63
2023/08/27 06:17:02;;;;;;;0.60;0.35;;;24.30;51.10;;;;;;5047579;28;20035;-63
2023/08/27 06:19:28;;;;;;;0.85;0.40;;;24.30;51.10;;;;;;5048637;28;20466;-65
2023/08/27 06:21:54;;;;;;;0.38;0.32;;;24.30;51.20;;;;;;5048560;28;20029;-67
2023/08/27 06:24:20;;;;;;;0.50;0.32;;;24.30;51.20;;;;;;5051048;28;20368;-61
2023/08/27 06:26:46;;;;;;;0.65;0.50;;;24.30;51.20;;;;;;5044233;28;20028;-63
2023/08/27 06:29:12;;;;;;;1.95;0.68;;;24.30;51.30;;;;;;5049517;28;20045;-65
2023/08/27 06:31:38;;;;;;;0.50;0.43;;;24.30;51.30;;;;;;5050551;28;20029;-62
2023/08/27 06:34:05;;;;;;;0.40;0.30;;;24.30;51.30;;;;;;5047265;28;20028;-64
2023/08/27 06:36:31;;;;;;;0.63;0.32;;;24.30;51.30;;;;;;5056014;28;20093;-66
2023/08/27 06:38:57;;;;;;;1.33;0.50;;;24.30;51.30;;;;;;5051702;28;20341;-66
2023/08/27 06:41:25;;;;;;;0.50;0.40;;;24.30;51.30;;;;;;5066475;28;20121;-66
2023/08/27 06:43:55;;;;;;;0.80;0.55;;;24.30;51.30;;;;;;5055830;28;20308;-63
2023/08/27 06:46:21;;;;;;;1.27;0.40;;;24.30;51.30;;;;;;5064791;28;20021;-66
2023/08/27 06:48:47;;;;;;;0.40;0.40;;;24.30;51.30;;;;;;5034947;28;20137;-65
2023/08/27 06:51:13;;;;;;;0.73;0.43;;;24.30;51.30;;;;;;5029972;28;20029;-62
2023/08/27 06:53:39;;;;;;;1.23;0.40;;;24.30;51.30;;;;;;5026267;28;20022;-65
2023/08/27 06:56:05;;;;;;;0.82;0.45;;;24.30;51.40;;;;;;5025495;28;20025;-64
2023/08/27 06:58:31;;;;;;;1.00;0.57;;;24.40;51.40;;;;;;5028452;28;20128;-63
2023/08/27 07:00:56;;;;;;;0.57;0.45;;;24.30;51.40;;;;;;5032048;28;20017;-63
2023/08/27 07:03:22;;;;;;;0.47;0.40;;;24.40;51.40;;;;;;5032006;28;20040;-64
2023/08/27 07:05:49;;;;;;;0.50;0.45;;;24.40;51.40;;;;;;5030672;28;20043;-64
2023/08/27 07:08:15;;;;;;;1.13;0.40;;;24.40;51.40;;;;;;5012209;28;20029;-67
2023/08/27 07:10:41;;;;;;;1.00;0.50;;;24.40;51.60;;;;;;5030893;28;20046;-65
2023/08/27 07:13:07;;;;;;;0.75;0.60;;;24.40;51.50;;;;;;5030613;28;20033;-65
2023/08/27 07:15:33;;;;;;;0.68;0.30;;;24.40;51.50;;;;;;5027830;28;20329;-64
2023/08/27 07:17:59;;;;;;;0.40;0.40;;;24.40;51.50;;;;;;5028443;28;20035;-64
2023/08/27 07:20:26;;;;;;;1.50;0.50;;;24.40;51.50;;;;;;5035521;28;20117;-68
2023/08/27 07:22:52;;;;;;;0.82;0.55;;;24.40;51.60;;;;;;5038298;28;20495;-69
2023/08/27 07:25:21;;;;;;;1.58;0.50;;;24.40;51.70;;;;;;5037748;28;20029;-63
2023/08/27 07:27:47;;;;;;;1.20;0.50;;;24.40;51.70;;;;;;5031705;28;20040;-64
2023/08/27 07:30:13;;;;;;;0.88;0.50;;;24.40;51.70;;;;;;5032288;28;20041;-62
2023/08/27 07:32:39;;;;;;;1.40;0.60;;;24.40;51.70;;;;;;5039957;28;20033;-63
2023/08/27 07:35:06;;;;;;;1.08;0.50;;;24.40;51.70;;;;;;5033257;28;20034;-63
2023/08/27 07:37:34;;;;;;;0.95;0.50;;;24.40;51.70;;;;;;5042151;28;20623;-65
2023/08/27 07:40:03;;;;;;;1.20;0.57;;;24.40;51.60;;;;;;5042613;28;20020;-62
2023/08/27 07:42:30;;;;;;;1.35;0.65;;;24.40;51.60;;;;;;5045219;28;20080;-65
2023/08/27 07:44:56;;;;;;;1.38;0.57;;;24.50;51.70;;;;;;5042683;28;20077;-65
2023/08/27 07:47:23;;;;;;;1.73;0.57;;;24.50;51.60;;;;;;5048088;28;20025;-64
2023/08/27 07:49:50;;;;;;;1.33;0.63;;;24.40;51.60;;;;;;5081018;28;20028;-69
2023/08/27 07:52:15;;;;;;;0.80;0.60;;;24.50;51.70;;;;;;5062439;28;20038;-65
2023/08/27 07:54:41;;;;;;;1.02;0.60;;;24.50;51.60;;;;;;5063318;28;20068;-66
2023/08/27 07:57:07;;;;;;;0.50;0.50;;;24.50;51.70;;;;;;5079630;28;20129;-66
2023/08/27 07:59:33;;;;;;;0.85;0.50;;;24.50;51.60;;;;;;5083384;28;20097;-63
2023/08/27 08:01:59;;;;;;;1.92;0.88;;;24.50;51.70;;;;;;5066547;28;20424;-65
2023/08/27 08:04:25;;;;;;;2.33;0.80;;;24.50;51.70;;;;;;5067572;28;20028;-64
2023/08/27 08:06:51;;;;;;;1.50;0.70;;;24.50;51.70;;;;;;5073744;28;20031;-65
2023/08/27 08:09:17;;;;;;;1.15;0.77;;;24.50;51.60;;;;;;5068777;28;20120;-64
2023/08/27 08:11:43;;;;;;;1.05;0.57;;;24.50;51.60;;;;;;5053836;28;20028;-62
2023/08/27 08:14:09;;;;;;;0.90;0.60;;;24.60;51.70;;;;;;5082521;28;20155;-66
2023/08/27 08:16:35;;;;;;;1.08;0.70;;;24.50;51.60;;;;;;5089180;28;20087;-64
2023/08/27 08:19:00;;;;;;;0.90;0.60;;;24.60;51.70;;;;;;5081308;28;20127;-64
2023/08/27 08:21:26;;;;;;;1.65;0.80;;;24.60;51.60;;;;;;5092565;28;20035;-64
2023/08/27 08:23:52;;;;;;;1.40;0.70;;;24.60;51.60;;;;;;5084211;28;20060;-66
2023/08/27 08:26:18;;;;;;;2.05;0.70;;;24.60;51.60;;;;;;5083521;28;20033;-64
2023/08/27 08:28:44;;;;;;;1.13;0.63;;;24.60;51.60;;;;;;5081491;28;20036;-66
2023/08/27 08:31:10;;;;;;;1.77;0.80;;;24.60;51.60;;;;;;5084647;28;20111;-62
2023/08/27 08:33:36;;;;;;;1.67;0.60;;;24.60;51.60;;;;;;5083775;28;20038;-63
2023/08/27 08:36:02;;;;;;;1.45;0.60;;;24.60;51.60;;;;;;5082668;28;20048;-64
2023/08/27 08:38:28;;;;;;;1.60;0.70;;;24.60;51.60;;;;;;5084199;28;20320;-68
2023/08/27 08:40:59;;;;;;;0.75;0.60;;;24.60;51.60;;;;;;5080170;28;20035;-67
2023/08/27 08:43:36;;;;;;;1.33;0.60;;;24.70;51.60;;;;;;5061476;28;20028;-68
2023/08/27 08:46:06;;;;;;;1.23;0.60;;;24.60;51.40;;;;;;5076703;28;20032;-66
2023/08/27 08:48:41;;;;;;;1.13;0.70;;;24.70;51.40;;;;;;5077051;28;20051;-65
2023/08/27 08:51:12;;;;;;;1.60;0.50;;;24.70;51.30;;;;;;5064446;28;20145;-64
2023/08/27 08:53:49;;;;;;;17.63;8.02;;;24.70;51.20;;;;;;5078470;28;20028;-63
2023/08/27 08:56:26;;;;;;;22.75;10.60;;;24.70;52.00;;;;;;5082037;28;20111;-65
2023/08/27 08:58:57;;;;;;;30.35;14.07;;;24.70;53.20;;;;;;5079658;28;20109;-64
2023/08/27 09:01:24;;;;;;;32.53;14.32;;;24.70;54.50;;;;;;5076367;28;20040;-64
2023/08/27 09:03:52;;;;;;;29.80;14.02;;;24.80;55.80;;;;;;5073517;28;20031;-65
2023/08/27 09:06:22;;;;;;;38.60;14.63;;;24.80;56.50;;;;;;5083605;28;20043;-63
2023/08/27 09:08:49;;;;;;;36.38;15.27;;;24.90;57.00;;;;;;5072175;28;20440;-63
2023/08/27 09:11:16;;;;;;;33.42;15.07;;;24.90;57.60;;;;;;5078345;28;20055;-66
2023/08/27 09:13:43;;;;;;;32.75;14.68;;;24.90;58.20;;;;;;5062559;28;20097;-64
2023/08/27 09:16:10;;;;;;;33.58;13.75;;;25.00;58.40;;;;;;5061664;28;20046;-64
2023/08/27 09:18:39;;;;;;;46.60;18.33;;;25.00;58.60;;;;;;5075748;28;20028;-65
2023/08/27 09:21:06;;;;;;;43.05;18.67;;;25.00;58.80;;;;;;5082094;28;20373;-63
2023/08/27 09:23:37;;;;;;;46.95;18.05;;;25.00;59.00;;;;;;5078417;28;20028;-63
2023/08/27 09:26:04;;;;;;;41.00;18.30;;;25.10;58.80;;;;;;5083948;28;20056;-66
2023/08/27 09:28:33;;;;;;;41.92;17.35;;;25.10;59.20;;;;;;5065842;28;20103;-65
2023/08/27 09:31:01;;;;;;;35.08;17.73;;;25.20;60.00;;;;;;5063388;28;20074;-65
2023/08/27 09:33:45;;;;;;;38.78;16.52;;;25.20;60.60;;;;;;5074703;28;20434;-65
2023/08/27 09:36:12;;;;;;;36.95;15.40;;;25.20;60.90;;;;;;5083665;28;20032;-65
2023/08/27 09:38:39;;;;;;;55.92;27.02;;;25.30;60.70;;;;;;5082694;28;20114;-64
2023/08/27 09:41:15;;;;;;;49.67;26.30;;;25.30;60.70;;;;;;5062838;28;20123;-63
2023/08/27 09:43:46;;;;;;;46.72;23.38;;;25.30;60.80;;;;;;5075042;28;20028;-63
2023/08/27 09:46:17;;;;;;;40.83;20.42;;;25.30;60.60;;;;;;5082036;28;20061;-65
2023/08/27 09:48:42;;;;;;;33.17;18.95;;;25.40;60.70;;;;;;5083440;28;20098;-62
2023/08/27 09:51:09;;;;;;;32.63;15.82;;;25.40;60.60;;;;;;5071219;28;20024;-58
2023/08/27 09:53:35;;;;;;;16.42;9.68;;;25.40;60.30;;;;;;5074018;28;20112;-56
2023/08/27 09:56:04;;;;;;;9.57;4.88;;;25.40;59.30;;;;;;5074784;28;20071;-59
2023/08/27 09:58:30;;;;;;;6.15;2.90;;;25.40;57.60;;;;;;5079078;28;20035;-58
2023/08/27 10:00:58;;;;;;;4.50;2.40;;;25.40;57.20;;;;;;5072563;28;20385;-57
2023/08/27 10:03:24;;;;;;;5.13;2.17;;;25.40;55.90;;;;;;5075992;28;20101;-58
2023/08/27 10:05:50;;;;;;;3.65;1.88;;;25.40;55.50;;;;;;5063112;28;20020;-65
2023/08/27 10:08:16;;;;;;;3.95;2.03;;;25.40;55.00;;;;;;5051848;28;20036;-66
2023/08/27 10:10:42;;;;;;;3.53;1.50;;;25.40;54.40;;;;;;5080744;28;20471;-67
2023/08/27 10:13:10;;;;;;;2.00;1.20;;;25.40;54.00;;;;;;5078229;28;20024;-65
2023/08/27 10:15:36;;;;;;;1.80;1.30;;;25.40;53.40;;;;;;5081090;28;20025;-67
2023/08/27 10:18:04;;;;;;;2.60;1.20;;;25.40;52.90;;;;;;5066878;28;20025;-65
2023/08/27 10:20:31;;;;;;;1.60;0.80;;;25.40;52.30;;;;;;5072298;28;20122;-66
2023/08/27 10:22:57;;;;;;;2.20;0.77;;;25.50;52.00;;;;;;5079864;28;20191;-69
2023/08/27 10:25:24;;;;;;;1.70;1.10;;;25.50;51.70;;;;;;5078500;28;20514;-66
2023/08/27 10:27:51;;;;;;;3.15;0.90;;;25.50;51.40;;;;;;5069829;28;20039;-66
2023/08/27 10:30:20;;;;;;;1.83;0.80;;;25.40;51.10;;;;;;5072576;28;20098;-68
2023/08/27 10:32:46;;;;;;;1.30;0.70;;;25.40;50.90;;;;;;5065076;28;20047;-68
2023/08/27 10:35:12;;;;;;;1.45;0.75;;;25.40;50.60;;;;;;5071052;28;20408;-68
2023/08/27 10:37:43;;;;;;;1.30;0.60;;;25.40;50.40;;;;;;5069339;28;20037;-67
2023/08/27 10:40:12;;;;;;;1.85;0.70;;;25.40;50.20;;;;;;5069355;28;20090;-67
2023/08/27 10:42:38;;;;;;;1.40;0.60;;;25.40;49.80;;;;;;5069487;28;21634;-69
2023/08/27 10:45:11;;;;;;;0.90;0.55;;;25.40;49.60;;;;;;5071305;28;20149;-66
2023/08/27 10:47:38;;;;;;;0.88;0.50;;;25.40;49.40;;;;;;5063021;28;20044;-66
2023/08/27 10:50:05;;;;;;;0.93;0.57;;;25.40;49.20;;;;;;5073810;28;20431;-65
2023/08/27 10:52:49;;;;;;;0.77;0.40;;;25.30;48.90;;;;;;5071674;28;20044;-65
2023/08/27 10:55:20;;;;;;;0.85;0.40;;;25.30;48.60;;;;;;5054146;28;20037;-65
2023/08/27 10:57:46;;;;;;;0.55;0.40;;;25.30;48.50;;;;;;5065547;28;20421;-66
2023/08/27 11:00:13;;;;;;;0.80;0.40;;;25.30;48.40;;;;;;5039754;28;20136;-66
2023/08/27 11:03:14;;;;;;;0.90;0.55;;;25.30;48.20;;;;;;5053843;28;20347;-65
2023/08/27 11:05:40;;;;;;;0.77;0.50;;;25.30;48.00;;;;;;5033302;28;20109;-66
2023/08/27 11:08:17;;;;;;;0.47;0.30;;;25.30;47.90;;;;;;5079734;28;20104;-65
2023/08/27 11:10:44;;;;;;;0.77;0.40;;;25.30;47.80;;;;;;5065558;28;20432;-68
2023/08/27 11:13:41;;;;;;;1.25;0.50;;;25.30;47.80;;;;;;5074157;28;20043;-66
2023/08/27 11:16:13;;;;;;;0.80;0.40;;;25.30;47.60;;;;;;5071304;28;20043;-66
2023/08/27 11:18:48;;;;;;;1.13;0.40;;;25.30;47.70;;;;;;5070540;28;20029;-67
2023/08/27 11:21:24;;;;;;;0.88;0.32;;;25.30;47.50;;;;;;5076261;28;20028;-66
2023/08/27 11:24:12;;;;;;;1.25;0.40;;;25.30;47.40;;;;;;5070512;28;20024;-67
2023/08/27 11:26:39;;;;;;;0.40;0.30;;;25.30;47.30;;;;;;5070674;28;20033;-66
2023/08/27 11:29:09;;;;;;;0.88;0.40;;;25.30;47.20;;;;;;5071623;28;20036;-67
2023/08/27 11:31:39;;;;;;;0.70;0.43;;;25.30;47.10;;;;;;5072930;28;20064;-66
2023/08/27 11:34:06;;;;;;;0.70;0.35;;;25.30;47.10;;;;;;5059959;28;20368;-66
2023/08/27 11:36:33;;;;;;;0.60;0.30;;;25.30;47.10;;;;;;5054272;28;20042;-67
2023/08/27 11:39:00;;;;;;;1.13;0.30;;;25.30;47.20;;;;;;5075272;28;20424;-68
2023/08/27 11:41:33;;;;;;;0.82;0.30;;;25.30;47.20;;;;;;5072193;28;20028;-66
2023/08/27 11:43:59;;;;;;;2.00;0.30;;;25.30;47.30;;;;;;5071520;28;20038;-66
2023/08/27 11:46:25;;;;;;;0.85;0.35;;;25.20;47.20;;;;;;5076998;28;20024;-67
2023/08/27 11:48:51;;;;;;;1.20;0.50;;;25.20;47.40;;;;;;5068639;28;20087;-66
2023/08/27 11:51:18;;;;;;;1.42;0.50;;;25.20;47.60;;;;;;5075782;28;20020;-65
2023/08/27 11:53:47;;;;;;;0.93;0.52;;;25.20;47.70;;;;;;5075575;28;20414;-66
2023/08/27 11:56:17;;;;;;;0.90;0.50;;;25.20;47.80;;;;;;5068344;28;20052;-66
2023/08/27 11:58:45;;;;;;;0.35;0.35;;;25.20;48.40;;;;;;5065560;28;20414;-66
2023/08/27 12:01:11;;;;;;;1.02;0.40;;;25.20;47.80;;;;;;5055246;28;20089;-66
2023/08/27 12:03:41;;;;;;;3.13;0.50;;;25.20;47.90;;;;;;5069660;28;20219;-65
2023/08/27 12:06:19;;;;;;;0.50;0.40;;;25.20;48.00;;;;;;5070253;28;20073;-65
2023/08/27 12:08:52;;;;;;;0.57;0.40;;;25.20;48.00;;;;;;5069470;28;20040;-68
2023/08/27 12:11:18;;;;;;;0.80;0.50;;;25.20;48.10;;;;;;5076230;28;20063;-66
2023/08/27 12:13:47;;;;;;;1.13;0.35;;;25.20;48.10;;;;;;5069086;28;20115;-63
2023/08/27 12:16:15;;;;;;;0.60;0.32;;;25.20;48.20;;;;;;5070466;28;20020;-65
2023/08/27 12:18:45;;;;;;;0.85;0.50;;;25.20;48.20;;;;;;5067267;28;20033;-65
2023/08/27 12:21:11;;;;;;;1.17;0.50;;;25.20;48.20;;;;;;5075820;28;20073;-67
2023/08/27 12:23:37;;;;;;;0.77;0.40;;;25.20;48.20;;;;;;5071586;28;20035;-67
2023/08/27 12:26:03;;;;;;;1.48;0.30;;;25.20;48.20;;;;;;5074896;28;20020;-64
2023/08/27 12:28:34;;;;;;;1.15;0.50;;;25.20;48.20;;;;;;5077765;28;20112;-66
2023/08/27 12:31:00;;;;;;;0.95;0.40;;;25.20;48.30;;;;;;5068014;28;20079;-65
2023/08/27 12:33:40;;;;;;;1.15;0.40;;;25.20;48.30;;;;;;5063412;28;20417;-65
2023/08/27 12:36:07;;;;;;;0.70;0.40;;;25.20;48.40;;;;;;5081484;28;20028;-66
2023/08/27 12:38:34;;;;;;;0.80;0.50;;;25.20;48.50;;;;;;5080416;28;20097;-66
2023/08/27 12:41:00;;;;;;;0.95;0.40;;;25.20;48.50;;;;;;5081834;28;20127;-65
2023/08/27 12:43:33;;;;;;;0.70;0.30;;;25.20;48.50;;;;;;5080181;28;20094;-64
2023/08/27 12:45:59;;;;;;;0.98;0.50;;;25.20;48.50;;;;;;5070297;28;20344;-66